Time;durP1;ratioP1;P1;durP2;ratioP2;P2;SDS_P1;SDS_P2;PMS_P1;PMS_P2;Temp;Humidity;BMP_temperature;BMP_pressure;BME280_temperature;BME280_humidity;BME280_pressure;Samples;Min_cycle;Max_cycle;Signal;HPM_P1;HPM_P2
2023/01/27 00:01:32;;;;;;;32.13;16.73;;;-1.70;99.90;;;;;;5074895;28;20031;-64
2023/01/27 00:03:58;;;;;;;30.90;16.40;;;-1.70;99.90;;;;;;5071135;28;20038;-64
2023/01/27 00:06:23;;;;;;;34.35;17.65;;;-1.60;99.90;;;;;;5065014;28;20047;-64
2023/01/27 00:08:49;;;;;;;33.10;18.65;;;-1.70;99.90;;;;;;5072143;28;20037;-64
2023/01/27 00:13:58;;;;;;;34.50;17.83;;;-1.80;99.90;;;;;;5069823;28;20132;-64
2023/01/27 00:16:24;;;;;;;36.20;17.85;;;-1.80;99.90;;;;;;5078315;28;20536;-64
2023/01/27 00:18:50;;;;;;;33.03;18.17;;;-1.70;99.90;;;;;;5074107;28;20469;-64
2023/01/27 00:26:43;;;;;;;33.03;17.17;;;-1.80;99.90;;;;;;5068172;28;20060;-64
2023/01/27 00:29:09;;;;;;;35.05;17.73;;;-1.80;99.90;;;;;;5063387;28;20037;-64
2023/01/27 00:34:18;;;;;;;35.78;18.60;;;-1.70;99.90;;;;;;5079512;28;20503;-64
2023/01/27 00:36:44;;;;;;;31.13;16.55;;;-1.70;99.90;;;;;;5081723;28;20032;-64
2023/01/27 00:39:11;;;;;;;33.25;17.50;;;-1.70;99.90;;;;;;5084166;28;20099;-64
2023/01/27 00:41:36;;;;;;;36.28;18.40;;;-1.60;99.90;;;;;;5078440;28;20477;-65
2023/01/27 00:44:04;;;;;;;34.20;18.75;;;-1.70;99.90;;;;;;5080171;28;20095;-64
2023/01/27 00:46:30;;;;;;;34.00;18.42;;;-1.70;99.90;;;;;;5081177;28;20043;-64
2023/01/27 00:48:56;;;;;;;34.63;18.48;;;-1.80;99.90;;;;;;5077266;28;20028;-64
2023/01/27 00:51:22;;;;;;;39.33;18.95;;;-1.70;99.90;;;;;;5080785;28;20116;-64
2023/01/27 00:53:48;;;;;;;35.35;18.35;;;-1.70;99.90;;;;;;5081002;28;20055;-64
2023/01/27 00:56:14;;;;;;;32.92;18.55;;;-1.70;99.90;;;;;;5084989;28;20074;-64
2023/01/27 00:58:39;;;;;;;36.78;18.70;;;-1.60;99.90;;;;;;5070789;28;20021;-64
2023/01/27 01:01:07;;;;;;;34.75;20.02;;;-1.50;99.90;;;;;;5072981;28;20028;-64
2023/01/27 01:03:34;;;;;;;37.22;20.17;;;-1.50;99.90;;;;;;5071977;28;20499;-64
2023/01/27 01:06:08;;;;;;;36.33;19.60;;;-1.50;99.90;;;;;;5071498;28;20032;-64
2023/01/27 01:08:36;;;;;;;41.78;21.70;;;-1.60;99.90;;;;;;5067912;28;20098;-65
2023/01/27 01:11:02;;;;;;;40.38;21.20;;;-1.70;99.90;;;;;;5071331;28;20032;-64
2023/01/27 01:13:28;;;;;;;33.80;18.92;;;-1.70;99.90;;;;;;5072179;28;20458;-64
2023/01/27 01:15:55;;;;;;;41.25;20.75;;;-1.70;99.90;;;;;;5070078;28;20032;-64
2023/01/27 01:18:20;;;;;;;37.67;20.13;;;-1.50;99.90;;;;;;5070662;28;20032;-64
2023/01/27 01:20:46;;;;;;;39.55;20.35;;;-1.50;99.90;;;;;;5075840;28;20380;-64
2023/01/27 01:23:13;;;;;;;42.17;20.20;;;-1.50;99.90;;;;;;5069251;28;20036;-64
2023/01/27 01:25:41;;;;;;;42.90;23.38;;;-1.50;99.90;;;;;;5085548;28;20048;-66
2023/01/27 01:28:07;;;;;;;42.03;21.98;;;-1.60;99.90;;;;;;5090272;28;20028;-64
2023/01/27 01:30:34;;;;;;;41.55;20.95;;;-1.60;99.90;;;;;;5088399;28;20031;-64
2023/01/27 01:33:00;;;;;;;36.55;19.60;;;-1.60;99.90;;;;;;5084362;28;20384;-63
2023/01/27 01:35:26;;;;;;;40.13;21.13;;;-1.50;99.90;;;;;;5091614;28;20064;-63
2023/01/27 01:37:52;;;;;;;37.35;19.30;;;-1.60;99.90;;;;;;5087709;28;20024;-63
2023/01/27 01:40:18;;;;;;;37.85;20.25;;;-1.50;99.90;;;;;;5090901;28;20111;-64
2023/01/27 01:42:52;;;;;;;38.97;20.42;;;-1.60;99.90;;;;;;5090373;28;20104;-64
2023/01/27 01:45:32;;;;;;;34.05;19.05;;;-1.60;99.90;;;;;;5091207;28;20039;-64
2023/01/27 01:48:13;;;;;;;37.85;19.15;;;-1.60;99.90;;;;;;5091228;28;20028;-64
2023/01/27 01:50:41;;;;;;;39.05;19.52;;;-1.70;99.90;;;;;;5082945;28;20020;-64
2023/01/27 01:53:09;;;;;;;37.33;19.02;;;-1.70;99.90;;;;;;5091807;28;20086;-64
2023/01/27 01:55:36;;;;;;;36.67;18.08;;;-1.70;99.90;;;;;;5090401;28;20031;-64
2023/01/27 01:58:05;;;;;;;32.60;17.63;;;-1.70;99.90;;;;;;5089963;28;20046;-64
2023/01/27 02:00:31;;;;;;;35.50;18.30;;;-1.60;99.90;;;;;;5093474;28;20028;-64
2023/01/27 02:02:57;;;;;;;37.88;18.02;;;-1.70;99.90;;;;;;5099152;28;20392;-64
2023/01/27 02:05:28;;;;;;;32.25;17.98;;;-1.70;99.90;;;;;;5090514;28;20028;-64
2023/01/27 02:08:21;;;;;;;31.98;17.58;;;-1.80;99.90;;;;;;5090890;28;20145;-63
2023/01/27 02:10:47;;;;;;;33.22;17.30;;;-1.80;99.90;;;;;;5068239;28;20094;-63
2023/01/27 02:13:13;;;;;;;34.10;16.92;;;-1.70;99.90;;;;;;5091668;28;20039;-63
2023/01/27 02:15:39;;;;;;;29.15;15.52;;;-1.80;99.90;;;;;;5090555;28;20032;-64
2023/01/27 02:18:05;;;;;;;31.23;15.43;;;-1.80;99.90;;;;;;5094416;28;20032;-63
2023/01/27 02:20:42;;;;;;;28.15;13.77;;;-1.80;99.90;;;;;;5072920;28;20549;-64
2023/01/27 02:23:20;;;;;;;27.13;13.77;;;-1.70;99.90;;;;;;5088965;28;20464;-64
2023/01/27 02:26:04;;;;;;;28.77;13.45;;;-1.70;99.90;;;;;;5089484;28;20044;-64
2023/01/27 02:28:30;;;;;;;26.95;13.95;;;-1.70;99.90;;;;;;5086056;28;20038;-63
2023/01/27 02:30:56;;;;;;;24.63;12.88;;;-1.60;99.90;;;;;;5088849;28;20057;-63
2023/01/27 02:33:22;;;;;;;28.75;14.05;;;-1.60;99.90;;;;;;5099456;28;20112;-63
2023/01/27 02:36:10;;;;;;;26.63;13.95;;;-1.60;99.90;;;;;;5089779;28;20381;-63
2023/01/27 02:38:49;;;;;;;30.02;13.95;;;-1.60;99.90;;;;;;5098027;28;20024;-64
2023/01/27 02:41:17;;;;;;;28.35;13.77;;;-1.60;99.90;;;;;;5090686;28;20477;-63
2023/01/27 02:43:43;;;;;;;31.40;14.27;;;-1.60;99.90;;;;;;5090228;28;20053;-63
2023/01/27 02:46:08;;;;;;;29.10;14.45;;;-1.70;99.90;;;;;;5091448;28;20032;-63
2023/01/27 02:48:34;;;;;;;29.02;13.30;;;-1.60;99.90;;;;;;5090286;28;20038;-64
2023/01/27 02:50:59;;;;;;;26.50;13.63;;;-1.60;99.90;;;;;;5090291;28;20520;-63
2023/01/27 02:53:25;;;;;;;26.75;12.35;;;-1.60;99.90;;;;;;5092640;28;20032;-63
2023/01/27 02:55:50;;;;;;;24.52;12.77;;;-1.60;99.90;;;;;;5094815;28;20032;-63
2023/01/27 02:58:16;;;;;;;20.98;11.60;;;-1.60;99.90;;;;;;5095213;28;20447;-63
2023/01/27 03:00:42;;;;;;;24.35;12.90;;;-1.60;99.90;;;;;;5094075;28;20020;-64
2023/01/27 03:03:08;;;;;;;23.52;12.93;;;-1.70;99.90;;;;;;5095200;28;20043;-64
2023/01/27 03:05:34;;;;;;;25.65;13.02;;;-1.70;99.90;;;;;;5083991;28;20027;-64
2023/01/27 03:07:59;;;;;;;23.63;12.77;;;-1.70;99.90;;;;;;5074667;28;20032;-63
2023/01/27 03:10:25;;;;;;;28.90;14.23;;;-1.70;99.90;;;;;;5087203;28;20024;-63
2023/01/27 03:12:50;;;;;;;27.33;12.23;;;-1.60;99.90;;;;;;5093747;28;20418;-64
2023/01/27 03:18:12;;;;;;;24.60;12.13;;;-1.60;99.90;;;;;;5094046;28;20396;-63
2023/01/27 03:20:39;;;;;;;20.15;11.95;;;-1.60;99.90;;;;;;5093548;28;20540;-65
2023/01/27 03:23:06;;;;;;;25.52;13.25;;;-1.70;99.90;;;;;;5093931;28;20083;-64
2023/01/27 03:25:32;;;;;;;24.55;13.05;;;-1.60;99.90;;;;;;5094083;28;20044;-64
2023/01/27 03:27:58;;;;;;;25.08;13.15;;;-1.70;99.90;;;;;;5094507;28;20036;-63
2023/01/27 03:30:24;;;;;;;24.35;13.43;;;-1.70;99.90;;;;;;5096428;28;20058;-64
2023/01/27 03:32:50;;;;;;;23.48;13.45;;;-1.70;99.90;;;;;;5096337;28;20038;-63
2023/01/27 03:35:16;;;;;;;24.25;14.15;;;-1.70;99.90;;;;;;5097830;28;20381;-63
2023/01/27 03:48:40;;;;;;;28.23;15.38;;;-1.60;99.90;;;;;;5092600;28;20443;-64
2023/01/27 03:51:08;;;;;;;25.20;13.95;;;-1.50;99.90;;;;;;5094114;28;20032;-64
2023/01/27 03:53:35;;;;;;;32.30;15.98;;;-1.50;99.90;;;;;;5095745;28;20032;-64
2023/01/27 03:56:01;;;;;;;27.33;15.15;;;-1.50;99.90;;;;;;5089425;28;20134;-63
2023/01/27 03:58:29;;;;;;;25.88;14.40;;;-1.60;99.90;;;;;;5093857;28;20038;-64
2023/01/27 04:00:57;;;;;;;26.08;14.27;;;-1.60;99.90;;;;;;5092458;28;20073;-64
2023/01/27 04:08:59;;;;;;;26.55;13.85;;;-1.60;99.90;;;;;;5098554;28;20193;-63
2023/01/27 04:14:10;;;;;;;25.38;13.73;;;-1.50;99.90;;;;;;5093075;28;20035;-63
2023/01/27 04:16:36;;;;;;;23.52;13.20;;;-1.50;99.90;;;;;;5093576;28;20047;-64
2023/01/27 04:19:03;;;;;;;22.95;12.27;;;-1.60;99.90;;;;;;5102136;28;20028;-63
2023/01/27 04:21:29;;;;;;;26.35;14.48;;;-1.60;99.90;;;;;;5092524;28;20038;-64
2023/01/27 04:23:55;;;;;;;27.10;15.05;;;-1.50;99.90;;;;;;5092731;28;20028;-63
2023/01/27 04:26:21;;;;;;;26.85;13.90;;;-1.60;99.90;;;;;;5102532;28;20048;-63
2023/01/27 04:28:47;;;;;;;29.13;16.20;;;-1.60;99.90;;;;;;5096295;28;20111;-64
2023/01/27 04:31:17;;;;;;;26.17;14.05;;;-1.50;99.90;;;;;;5093423;28;20028;-63
2023/01/27 04:33:43;;;;;;;26.08;15.07;;;-1.50;99.90;;;;;;5098797;28;20028;-64
2023/01/27 04:36:11;;;;;;;33.35;17.17;;;-1.40;99.90;;;;;;5093699;28;20438;-63
2023/01/27 04:38:37;;;;;;;30.63;16.35;;;-1.40;99.90;;;;;;5093193;28;20036;-64
2023/01/27 04:41:03;;;;;;;30.73;16.35;;;-1.40;99.90;;;;;;5074476;28;20028;-63
2023/01/27 04:43:29;;;;;;;27.83;15.77;;;-1.40;99.90;;;;;;5095202;28;20032;-64
2023/01/27 04:45:55;;;;;;;29.45;16.50;;;-1.40;99.90;;;;;;5094340;28;20028;-63
2023/01/27 04:48:20;;;;;;;33.22;16.35;;;-1.30;99.90;;;;;;5093206;28;20070;-63
2023/01/27 04:50:46;;;;;;;32.13;17.10;;;-1.40;99.90;;;;;;5091759;28;20097;-64
2023/01/27 04:53:12;;;;;;;28.73;16.88;;;-1.50;99.90;;;;;;5090732;28;20028;-63
2023/01/27 04:55:37;;;;;;;35.88;19.33;;;-1.40;99.90;;;;;;5080966;28;20028;-64
2023/01/27 04:58:04;;;;;;;36.22;19.25;;;-1.40;99.90;;;;;;5092763;28;20032;-64
2023/01/27 05:00:30;;;;;;;36.83;19.35;;;-1.50;99.90;;;;;;5089046;28;20453;-64
2023/01/27 05:02:56;;;;;;;33.25;19.38;;;-1.50;99.90;;;;;;5091745;28;20030;-64
2023/01/27 05:05:21;;;;;;;33.90;18.48;;;-1.50;99.90;;;;;;5092021;28;20107;-63
2023/01/27 05:07:47;;;;;;;35.38;20.20;;;-1.50;99.90;;;;;;5091460;28;20057;-64
2023/01/27 05:10:13;;;;;;;34.25;18.83;;;-1.60;99.90;;;;;;5100697;28;20036;-63
2023/01/27 05:12:38;;;;;;;33.67;19.38;;;-1.60;99.90;;;;;;5086988;28;20065;-64
2023/01/27 05:15:04;;;;;;;38.88;19.45;;;-1.50;99.90;;;;;;5092040;28;20051;-63
2023/01/27 05:17:31;;;;;;;38.17;19.98;;;-1.40;99.90;;;;;;5091090;28;20044;-63
2023/01/27 05:19:57;;;;;;;33.45;18.40;;;-1.40;99.90;;;;;;5091104;28;20193;-63
2023/01/27 05:22:22;;;;;;;34.65;20.75;;;-1.50;99.90;;;;;;5095628;28;20028;-64
2023/01/27 05:24:48;;;;;;;34.97;18.20;;;-1.50;99.90;;;;;;5091376;28;20051;-63
2023/01/27 05:27:13;;;;;;;38.53;20.15;;;-1.50;99.90;;;;;;5091609;28;20400;-64
2023/01/27 05:29:39;;;;;;;40.45;20.85;;;-1.50;99.90;;;;;;5090871;28;20144;-64
2023/01/27 05:32:05;;;;;;;35.67;20.27;;;-1.50;99.90;;;;;;5090196;28;20489;-64
2023/01/27 05:34:30;;;;;;;42.55;22.08;;;-1.50;99.90;;;;;;5091256;28;20036;-63
2023/01/27 05:36:56;;;;;;;40.03;22.10;;;-1.50;99.90;;;;;;5091301;28;20036;-63
2023/01/27 05:39:21;;;;;;;36.20;20.10;;;-1.50;99.90;;;;;;5091139;28;20445;-64
2023/01/27 05:41:47;;;;;;;35.42;19.77;;;-1.50;99.90;;;;;;5091141;28;20106;-63
2023/01/27 05:44:13;;;;;;;40.60;21.85;;;-1.50;99.90;;;;;;5091004;28;20028;-63
2023/01/27 05:46:40;;;;;;;40.38;21.50;;;-1.50;99.90;;;;;;5091156;28;20434;-63
2023/01/27 05:49:06;;;;;;;39.60;21.25;;;-1.50;99.90;;;;;;5090754;28;20028;-63
2023/01/27 05:51:36;;;;;;;37.88;19.55;;;-1.50;99.90;;;;;;5095982;28;20471;-63
2023/01/27 05:54:03;;;;;;;36.60;19.40;;;-1.40;99.90;;;;;;5092887;28;20050;-64
2023/01/27 05:56:28;;;;;;;31.20;17.85;;;-1.30;99.90;;;;;;5092119;28;20032;-63
2023/01/27 05:58:55;;;;;;;35.67;17.88;;;-1.40;99.90;;;;;;5090557;28;20089;-63
2023/01/27 06:01:24;;;;;;;31.23;17.92;;;-1.40;99.90;;;;;;5100402;28;20084;-63
2023/01/27 06:03:49;;;;;;;31.45;18.50;;;-1.50;99.90;;;;;;5092720;28;20380;-64
2023/01/27 06:06:17;;;;;;;32.88;18.55;;;-1.50;99.90;;;;;;5091954;28;20032;-63
2023/01/27 06:08:44;;;;;;;35.92;18.33;;;-1.60;99.90;;;;;;5092059;28;20028;-65
2023/01/27 06:11:10;;;;;;;37.10;20.05;;;-1.60;99.90;;;;;;5086291;28;20111;-64
2023/01/27 06:13:37;;;;;;;35.30;18.85;;;-1.50;99.90;;;;;;5090071;28;20354;-64
2023/01/27 06:16:05;;;;;;;35.67;18.98;;;-1.50;99.90;;;;;;5091362;28;20032;-64
2023/01/27 06:18:31;;;;;;;34.45;19.70;;;-1.60;99.90;;;;;;5091482;28;20028;-64
2023/01/27 06:20:58;;;;;;;32.20;18.30;;;-1.50;99.90;;;;;;5091193;28;20620;-65
2023/01/27 06:23:23;;;;;;;36.00;19.08;;;-1.50;99.90;;;;;;5096289;28;20377;-64
2023/01/27 06:25:49;;;;;;;33.13;19.00;;;-1.50;99.90;;;;;;5089581;28;20043;-66
2023/01/27 06:28:16;;;;;;;35.45;19.42;;;-1.50;99.90;;;;;;5085318;28;20028;-64
2023/01/27 06:30:42;;;;;;;35.38;18.80;;;-1.50;99.90;;;;;;5075180;28;20033;-63
2023/01/27 06:33:07;;;;;;;34.45;19.23;;;-1.50;99.90;;;;;;5089418;28;20065;-66
2023/01/27 06:35:34;;;;;;;34.58;18.70;;;-1.50;99.90;;;;;;5090213;28;20032;-64
2023/01/27 06:38:01;;;;;;;35.03;19.73;;;-1.50;99.90;;;;;;5090762;28;20032;-64
2023/01/27 06:40:29;;;;;;;35.58;19.75;;;-1.40;99.90;;;;;;5090537;28;20032;-64
2023/01/27 06:42:55;;;;;;;34.58;19.23;;;-1.40;99.90;;;;;;5090102;28;20055;-63
2023/01/27 06:45:21;;;;;;;38.17;19.77;;;-1.40;99.90;;;;;;5090329;28;20060;-62
2023/01/27 06:47:57;;;;;;;38.17;20.80;;;-1.40;99.90;;;;;;5088384;28;20433;-65
2023/01/27 06:50:23;;;;;;;42.80;21.27;;;-1.50;99.90;;;;;;5090458;28;20477;-63
2023/01/27 06:52:50;;;;;;;39.65;19.80;;;-1.50;99.90;;;;;;5089957;28;20387;-66
2023/01/27 06:55:16;;;;;;;35.30;20.38;;;-1.50;99.90;;;;;;5097343;28;20080;-65
2023/01/27 06:57:42;;;;;;;35.50;19.92;;;-1.40;99.90;;;;;;5089622;28;20110;-65
2023/01/27 07:00:09;;;;;;;36.13;20.40;;;-1.40;99.90;;;;;;5091331;28;20031;-65
2023/01/27 07:02:34;;;;;;;34.83;19.70;;;-1.40;99.90;;;;;;5090834;28;20039;-66
2023/01/27 07:05:00;;;;;;;37.30;20.00;;;-1.40;99.90;;;;;;5085907;28;20496;-65
2023/01/27 07:07:25;;;;;;;36.67;19.80;;;-1.30;99.90;;;;;;5082426;28;20056;-66
2023/01/27 07:09:51;;;;;;;37.22;21.60;;;-1.30;99.90;;;;;;5078698;28;20484;-65
2023/01/27 07:12:16;;;;;;;35.88;19.65;;;-1.20;99.90;;;;;;5081112;28;20098;-65
2023/01/27 07:14:42;;;;;;;38.90;21.05;;;-1.20;99.90;;;;;;5079108;28;20036;-65
2023/01/27 07:17:07;;;;;;;38.70;20.02;;;-1.20;99.90;;;;;;5083416;28;20036;-65
2023/01/27 07:19:33;;;;;;;32.80;17.50;;;-1.20;99.90;;;;;;5087928;28;20101;-65
2023/01/27 07:21:59;;;;;;;34.97;18.55;;;-1.20;99.90;;;;;;5080708;28;20035;-64
2023/01/27 07:24:25;;;;;;;31.67;17.95;;;-1.20;99.90;;;;;;5078067;28;20514;-64
2023/01/27 07:26:51;;;;;;;33.50;18.05;;;-1.20;99.90;;;;;;5073010;28;20107;-65
2023/01/27 07:29:16;;;;;;;34.00;19.02;;;-1.20;99.90;;;;;;5083107;28;20024;-64
2023/01/27 07:31:43;;;;;;;34.97;18.98;;;-1.20;99.90;;;;;;5077650;28;20032;-64
2023/01/27 07:34:09;;;;;;;32.08;17.00;;;-1.10;99.90;;;;;;5088746;28;20100;-65
2023/01/27 07:36:35;;;;;;;36.22;19.42;;;-1.20;99.90;;;;;;5084389;28;20127;-66
2023/01/27 07:39:00;;;;;;;34.42;19.17;;;-1.20;99.90;;;;;;5077924;28;20028;-65
2023/01/27 07:41:26;;;;;;;36.65;19.25;;;-1.10;99.90;;;;;;5086890;28;20028;-65
2023/01/27 07:43:51;;;;;;;32.72;18.45;;;-1.10;99.90;;;;;;5086292;28;20529;-65
2023/01/27 07:46:17;;;;;;;33.45;17.15;;;-1.10;99.90;;;;;;5074442;28;20035;-65
2023/01/27 07:48:43;;;;;;;31.65;17.50;;;-1.10;99.90;;;;;;5079800;28;20108;-65
2023/01/27 07:51:12;;;;;;;30.98;17.27;;;-1.10;99.90;;;;;;5079294;28;20024;-65
2023/01/27 07:53:38;;;;;;;30.67;16.55;;;-1.00;99.90;;;;;;5082761;28;20378;-65
2023/01/27 07:56:05;;;;;;;27.90;16.08;;;-1.00;99.90;;;;;;5077128;28;20080;-65
2023/01/27 07:58:30;;;;;;;30.02;15.98;;;-1.00;99.90;;;;;;5083520;28;20035;-65
2023/01/27 08:00:56;;;;;;;25.77;14.05;;;-1.00;99.90;;;;;;5079133;28;20055;-65
2023/01/27 08:03:24;;;;;;;25.88;15.40;;;-1.00;99.90;;;;;;5085015;28;20088;-66
2023/01/27 08:05:49;;;;;;;27.75;15.38;;;-1.00;99.90;;;;;;5078771;28;20488;-65
2023/01/27 08:08:15;;;;;;;29.92;16.92;;;-1.00;99.90;;;;;;5084256;28;20033;-65
2023/01/27 08:10:45;;;;;;;26.30;14.30;;;-1.00;99.90;;;;;;5079308;28;20466;-65
2023/01/27 08:13:11;;;;;;;;;;;-1.00;99.90;;;;;;5077824;28;20469;-65
2023/01/27 08:15:37;;;;;;;24.73;13.73;;;-1.00;99.90;;;;;;5083839;28;19947;-66
2023/01/27 08:18:03;;;;;;;26.35;14.75;;;-1.00;99.90;;;;;;5088977;28;20032;-65
2023/01/27 08:20:28;;;;;;;24.58;12.95;;;-1.00;99.90;;;;;;5077745;28;20060;-65
2023/01/27 08:22:54;;;;;;;24.75;14.10;;;-1.00;99.90;;;;;;5091203;28;20043;-65
2023/01/27 08:25:21;;;;;;;25.85;13.45;;;-1.00;99.90;;;;;;5085596;28;20481;-65
2023/01/27 08:27:54;;;;;;;25.92;14.57;;;-1.00;99.90;;;;;;5091357;28;20150;-69
2023/01/27 08:30:20;;;;;;;27.98;14.15;;;-0.90;99.90;;;;;;5089603;28;20380;-66
2023/01/27 08:32:46;;;;;;;26.10;14.35;;;-1.00;99.90;;;;;;5092842;28;20028;-65
2023/01/27 08:35:12;;;;;;;23.75;13.68;;;-0.90;99.90;;;;;;5092500;28;20020;-65
2023/01/27 08:37:37;;;;;;;24.10;14.25;;;-0.90;99.90;;;;;;5092185;28;20070;-65
2023/01/27 08:40:03;;;;;;;24.73;13.32;;;-0.90;99.90;;;;;;5092509;28;20043;-64
2023/01/27 08:42:29;;;;;;;25.50;13.48;;;-0.80;99.90;;;;;;5092740;28;20031;-64
2023/01/27 08:44:54;;;;;;;27.13;14.07;;;-0.80;99.90;;;;;;5091733;28;20016;-64
2023/01/27 08:47:20;;;;;;;26.13;13.95;;;-0.80;99.90;;;;;;5092538;28;20539;-64
2023/01/27 08:49:46;;;;;;;25.88;12.65;;;-0.80;99.90;;;;;;5091523;28;20064;-64
2023/01/27 08:52:12;;;;;;;24.02;13.25;;;-0.80;99.90;;;;;;5088362;28;20048;-64
2023/01/27 08:54:38;;;;;;;26.52;14.13;;;-0.80;99.90;;;;;;5089767;28;20365;-64
2023/01/27 08:57:04;;;;;;;25.98;13.85;;;-0.80;99.90;;;;;;5095485;28;20043;-64
2023/01/27 08:59:29;;;;;;;26.65;13.60;;;-0.70;99.90;;;;;;5090336;28;20101;-64
2023/01/27 09:01:55;;;;;;;25.48;13.52;;;-0.80;99.90;;;;;;5095447;28;20028;-64
2023/01/27 09:04:21;;;;;;;27.13;14.10;;;-0.80;99.90;;;;;;5097643;28;20028;-64
2023/01/27 09:06:49;;;;;;;25.40;13.65;;;-0.80;99.90;;;;;;5092412;28;20694;-64
2023/01/27 09:09:15;;;;;;;25.27;13.32;;;-0.80;99.90;;;;;;5091573;28;20027;-64
2023/01/27 09:11:43;;;;;;;28.38;15.35;;;-0.80;99.90;;;;;;5091205;28;20028;-64
2023/01/27 09:14:09;;;;;;;26.45;14.48;;;-0.80;99.90;;;;;;5073497;28;20419;-67
2023/01/27 09:16:35;;;;;;;25.35;14.18;;;-0.80;99.90;;;;;;5080561;28;20032;-64
2023/01/27 09:19:00;;;;;;;25.08;14.40;;;-0.80;99.90;;;;;;5086948;28;20077;-65
2023/01/27 09:21:26;;;;;;;25.45;14.43;;;-0.70;99.90;;;;;;5092241;28;20020;-65
2023/01/27 09:23:52;;;;;;;30.30;16.15;;;-0.70;99.90;;;;;;5095213;28;20020;-65
2023/01/27 09:26:17;;;;;;;31.98;16.10;;;-0.80;99.90;;;;;;5092406;28;20058;-65
2023/01/27 09:28:43;;;;;;;31.52;15.93;;;-0.70;99.90;;;;;;5097511;28;20143;-65
2023/01/27 09:31:08;;;;;;;30.63;15.40;;;-0.70;99.90;;;;;;5091714;28;20413;-63
2023/01/27 09:33:35;;;;;;;30.00;16.63;;;-0.80;99.90;;;;;;5084958;28;20024;-64
2023/01/27 09:36:05;;;;;;;31.88;16.98;;;-0.80;99.90;;;;;;5089747;28;20039;-64
2023/01/27 09:38:35;;;;;;;32.38;16.38;;;-0.80;99.90;;;;;;5093217;28;20089;-64
2023/01/27 09:41:00;;;;;;;;;;;-0.80;99.90;;;;;;5091162;28;20036;-63
2023/01/27 09:43:41;;;;;;;32.38;15.48;;;-0.80;99.90;;;;;;5091771;28;19908;-64
2023/01/27 09:46:31;;;;;;;35.67;15.35;;;-0.70;99.90;;;;;;5091178;28;20032;-64
2023/01/27 09:49:20;;;;;;;34.65;16.90;;;-0.80;99.90;;;;;;5090750;28;20034;-64
2023/01/27 09:52:23;;;;;;;32.90;17.35;;;-0.80;99.90;;;;;;5081669;28;20028;-64
2023/01/27 09:55:07;;;;;;;32.20;15.55;;;-0.80;99.90;;;;;;5091662;28;20049;-64
2023/01/27 09:57:49;;;;;;;37.38;17.75;;;-0.80;99.90;;;;;;5089601;28;20055;-64
2023/01/27 10:00:41;;;;;;;40.95;18.45;;;-0.80;99.90;;;;;;5096425;28;20028;-64
2023/01/27 10:03:28;;;;;;;32.42;16.35;;;-0.60;99.90;;;;;;5074778;28;20024;-65
2023/01/27 10:06:23;;;;;;;35.10;16.27;;;-0.70;99.90;;;;;;5080561;28;20050;-65
2023/01/27 10:09:34;;;;;;;40.00;17.45;;;-0.70;99.90;;;;;;5086302;28;20028;-65
2023/01/27 10:12:11;;;;;;;34.85;16.45;;;-0.70;99.90;;;;;;5043368;28;20534;-64
2023/01/27 10:14:57;;;;;;;36.40;16.02;;;-0.70;99.90;;;;;;5045257;28;20036;-64
2023/01/27 10:17:44;;;;;;;39.75;16.90;;;-0.70;99.90;;;;;;5073941;28;20056;-64
2023/01/27 10:20:33;;;;;;;36.35;16.85;;;-0.60;99.90;;;;;;5089400;28;20028;-64
2023/01/27 10:23:32;;;;;;;36.05;15.93;;;-0.50;99.90;;;;;;5091682;28;20031;-64
2023/01/27 10:26:02;;;;;;;27.90;14.40;;;-0.40;99.90;;;;;;5090244;28;20054;-64
2023/01/27 10:28:29;;;;;;;;;;;-0.20;99.90;;;;;;5091499;28;20028;-65
2023/01/27 10:31:00;;;;;;;23.25;11.73;;;-0.20;99.90;;;;;;5089427;28;20536;-63
2023/01/27 10:33:50;;;;;;;25.83;12.38;;;-0.30;99.90;;;;;;5084890;28;20039;-64
2023/01/27 10:36:29;;;;;;;;;;;-0.30;99.90;;;;;;5092326;28;20063;-63
2023/01/27 10:38:57;;;;;;;27.88;11.95;;;-0.20;99.90;;;;;;5089654;28;19908;-64
2023/01/27 10:41:53;;;;;;;26.50;12.82;;;-0.20;99.90;;;;;;5087392;28;20104;-64
2023/01/27 10:44:37;;;;;;;25.40;12.45;;;-0.10;99.90;;;;;;5089708;28;20024;-64
2023/01/27 10:47:24;;;;;;;21.98;11.95;;;0.00;99.90;;;;;;5090110;28;20522;-64
2023/01/27 10:49:58;;;;;;;26.85;13.40;;;0.00;99.90;;;;;;5089500;28;20026;-63
2023/01/27 10:52:33;;;;;;;32.92;14.13;;;0.00;99.90;;;;;;5091405;28;20034;-65
2023/01/27 10:55:12;;;;;;;27.45;12.73;;;-0.10;99.90;;;;;;5088953;28;20377;-65
2023/01/27 10:57:47;;;;;;;29.23;13.15;;;-0.10;99.90;;;;;;5089633;28;20123;-65
2023/01/27 11:00:30;;;;;;;31.83;13.25;;;0.00;99.90;;;;;;5083442;28;20047;-64
2023/01/27 11:03:16;;;;;;;25.92;13.18;;;0.00;99.90;;;;;;5085635;28;20028;-64
2023/01/27 11:05:47;;;;;;;27.15;12.48;;;0.00;99.90;;;;;;5090011;28;20077;-65
2023/01/27 11:08:17;;;;;;;24.95;12.57;;;0.00;99.90;;;;;;5092128;28;20040;-64
2023/01/27 11:13:32;;;;;;;23.83;12.25;;;0.00;99.90;;;;;;5086456;28;20109;-64
2023/01/27 11:16:00;;;;;;;23.50;12.07;;;0.10;99.90;;;;;;5088288;28;20028;-64
2023/01/27 11:18:34;;;;;;;27.67;12.50;;;0.20;99.90;;;;;;5096992;28;20028;-64
2023/01/27 11:21:04;;;;;;;25.25;12.07;;;0.20;99.90;;;;;;5093913;28;20020;-64
2023/01/27 11:23:39;;;;;;;24.52;12.02;;;0.20;99.90;;;;;;5098303;28;20028;-64
2023/01/27 11:26:26;;;;;;;21.70;11.32;;;0.30;99.90;;;;;;5094997;28;20159;-64
2023/01/27 11:29:16;;;;;;;19.60;10.55;;;0.20;99.90;;;;;;5090698;28;20026;-64
2023/01/27 11:31:52;;;;;;;23.13;11.55;;;0.20;99.90;;;;;;5093791;28;20020;-66
2023/01/27 11:34:56;;;;;;;21.02;11.07;;;0.10;99.90;;;;;;5092543;28;20056;-64
2023/01/27 11:37:29;;;;;;;29.13;10.88;;;0.10;99.90;;;;;;5091712;28;20447;-66
2023/01/27 11:39:55;;;;;;;22.27;10.68;;;0.20;99.90;;;;;;5091461;28;20073;-66
2023/01/27 11:42:21;;;;;;;21.88;11.48;;;0.30;99.90;;;;;;5094702;28;20174;-63
2023/01/27 11:44:54;;;;;;;21.88;10.18;;;0.40;99.90;;;;;;5092697;28;20055;-64
2023/01/27 11:47:26;;;;;;;22.17;11.23;;;0.40;99.90;;;;;;5089044;28;20481;-64
2023/01/27 11:49:53;;;;;;;19.42;10.45;;;0.40;99.90;;;;;;5093501;28;20078;-66
2023/01/27 11:52:22;;;;;;;18.60;10.13;;;0.50;99.90;;;;;;5101869;28;20541;-66
2023/01/27 11:55:14;;;;;;;17.70;9.23;;;0.50;99.90;;;;;;5092940;28;20020;-65
2023/01/27 11:58:21;;;;;;;20.23;10.02;;;0.60;99.90;;;;;;5090216;28;20063;-65
2023/01/27 12:00:56;;;;;;;18.77;9.80;;;0.50;99.90;;;;;;5074431;28;20107;-65
2023/01/27 12:03:46;;;;;;;21.45;10.70;;;0.60;99.90;;;;;;5088182;28;20027;-65
2023/01/27 12:06:35;;;;;;;25.02;11.55;;;0.60;99.90;;;;;;5087859;28;20499;-65
2023/01/27 12:09:01;;;;;;;19.00;9.65;;;0.60;99.90;;;;;;5074078;28;20047;-65
2023/01/27 12:11:29;;;;;;;21.55;10.15;;;0.60;99.90;;;;;;5093876;28;20063;-65
2023/01/27 12:13:58;;;;;;;17.80;10.35;;;0.60;99.90;;;;;;5092036;28;20048;-65
2023/01/27 12:16:32;;;;;;;21.83;10.75;;;0.50;99.90;;;;;;5094769;28;20039;-65
2023/01/27 12:19:04;;;;;;;21.40;10.85;;;0.50;99.90;;;;;;5088230;28;20692;-65
2023/01/27 12:21:49;;;;;;;21.73;11.68;;;0.50;99.90;;;;;;5093573;28;20028;-66
2023/01/27 12:24:25;;;;;;;24.02;10.50;;;0.40;99.90;;;;;;5084398;28;20500;-69
2023/01/27 12:26:52;;;;;;;22.15;11.05;;;0.40;99.90;;;;;;5091626;28;20055;-66
2023/01/27 12:29:21;;;;;;;23.48;11.95;;;0.50;99.90;;;;;;5093183;28;20063;-67
2023/01/27 12:31:50;;;;;;;26.77;12.40;;;0.40;99.90;;;;;;5093010;28;20127;-67
2023/01/27 12:34:25;;;;;;;24.23;12.38;;;0.50;99.90;;;;;;5094253;28;20036;-69
2023/01/27 12:36:51;;;;;;;29.27;13.77;;;0.50;99.90;;;;;;5097131;28;20035;-69
2023/01/27 12:39:29;;;;;;;30.17;14.48;;;0.50;99.90;;;;;;5092733;28;20028;-69
2023/01/27 12:41:54;;;;;;;26.73;13.05;;;0.50;99.90;;;;;;5090840;28;20579;-68
2023/01/27 12:44:24;;;;;;;29.90;13.68;;;0.60;99.90;;;;;;5092552;28;20049;-68
2023/01/27 12:47:03;;;;;;;25.75;13.65;;;0.60;99.90;;;;;;5092443;28;20415;-68
2023/01/27 12:49:34;;;;;;;30.13;14.05;;;0.70;99.90;;;;;;5095280;28;20028;-68
2023/01/27 12:52:07;;;;;;;27.48;13.27;;;0.70;99.90;;;;;;5096617;28;20103;-69
2023/01/27 12:54:33;;;;;;;29.10;14.07;;;0.60;99.90;;;;;;5091877;28;20028;-69
2023/01/27 12:57:05;;;;;;;30.63;14.50;;;0.60;99.90;;;;;;5092379;28;20065;-69
2023/01/27 12:59:32;;;;;;;29.60;14.18;;;0.60;99.90;;;;;;5089782;28;20045;-67
2023/01/27 13:02:18;;;;;;;29.65;14.20;;;0.60;99.90;;;;;;5086889;28;20032;-68
2023/01/27 13:04:50;;;;;;;25.02;13.55;;;0.60;99.90;;;;;;5084910;28;20427;-69
2023/01/27 13:07:21;;;;;;;30.65;15.18;;;0.60;99.90;;;;;;5081842;28;20524;-69
2023/01/27 13:09:52;;;;;;;29.55;15.02;;;0.70;99.90;;;;;;5082570;28;20538;-69
2023/01/27 13:12:28;;;;;;;28.42;13.65;;;0.60;99.90;;;;;;5086347;28;20043;-70
2023/01/27 13:15:07;;;;;;;28.58;14.93;;;0.70;99.90;;;;;;5085879;28;20541;-70
2023/01/27 13:17:36;;;;;;;27.23;13.98;;;0.80;99.90;;;;;;5086963;28;20032;-70
2023/01/27 13:20:33;;;;;;;30.63;15.65;;;0.70;99.90;;;;;;5083127;28;20103;-70